Time;durP1;ratioP1;P1;durP2;ratioP2;P2;SDS_P1;SDS_P2;PMS_P1;PMS_P2;Temp;Humidity;BMP_temperature;BMP_pressure;BME280_temperature;BME280_humidity;BME280_pressure;Samples;Min_cycle;Max_cycle;Signal;HPM_P1;HPM_P2
2021/05/14 00:07:16;;;;;;;9.95;5.50;;;;;;;12.81;86.78;98840.69;713067;1180;113637;-76
2021/05/14 00:22:37;;;;;;;21.70;9.60;;;;;;;12.80;88.38;98843.48;713187;1203;114168;-76
2021/05/14 00:37:58;;;;;;;23.00;10.70;;;;;;;12.69;88.77;98841.34;713346;1203;115404;-76
2021/05/14 00:53:19;;;;;;;9.13;5.47;;;;;;;12.33;90.04;98840.28;712884;1203;114954;-76
2021/05/14 01:08:42;;;;;;;8.60;5.80;;;;;;;12.27;92.00;98838.38;712823;1203;114926;-75
2021/05/14 01:24:05;;;;;;;26.63;11.57;;;;;;;12.22;92.45;98838.09;712637;1181;113857;-76
2021/05/14 01:39:26;;;;;;;15.83;8.48;;;;;;;12.15;92.95;98833.59;712410;1206;114482;-76
2021/05/14 01:54:46;;;;;;;25.13;10.47;;;;;;;12.13;92.72;98842.64;712449;1205;115356;-76
2021/05/14 02:10:08;;;;;;;14.80;8.80;;;;;;;12.10;93.60;98858.76;712090;1205;114763;-75
2021/05/14 02:25:28;;;;;;;15.60;8.07;;;;;;;11.81;94.99;98839.29;712208;1205;114507;-75
2021/05/14 02:40:49;;;;;;;13.18;7.00;;;;;;;11.74;95.55;98835.75;712308;1202;114338;-75
2021/05/14 02:56:09;;;;;;;15.10;9.00;;;;;;;11.62;95.46;98846.67;712388;1204;113933;-76
2021/05/14 03:11:29;;;;;;;10.90;6.70;;;;;;;11.54;96.45;98844.13;712369;1203;115230;-77
2021/05/14 03:26:54;;;;;;;12.55;6.70;;;;;;;11.55;96.85;98844.95;712258;1206;114362;-75
2021/05/14 03:42:17;;;;;;;15.90;8.43;;;;;;;11.78;97.68;98861.48;713118;1205;114314;-75
2021/05/14 03:57:38;;;;;;;25.48;11.45;;;;;;;11.92;98.25;98872.22;713352;1203;115167;-74
2021/05/14 04:28:38;;;;;;;14.40;8.40;;;;;;;12.56;99.25;98868.30;713417;1203;115145;-75
2021/05/14 04:43:59;;;;;;;14.13;6.55;;;;;;;12.87;98.10;98856.75;713392;1203;114824;-75
2021/05/14 04:59:20;;;;;;;22.18;12.43;;;;;;;13.39;98.76;98868.05;713508;1203;114173;-77
2021/05/14 05:14:43;;;;;;;11.18;6.40;;;;;;;14.06;97.69;98858.86;715546;1169;115297;-68
2021/05/14 05:30:05;;;;;;;11.85;5.88;;;;;;;14.68;96.08;98852.94;712744;1203;115021;-69
2021/05/14 05:45:25;;;;;;;8.65;5.65;;;;;;;15.23;95.03;98866.92;713171;1202;115283;-70
2021/05/14 06:00:47;;;;;;;17.20;8.90;;;;;;;15.80;93.44;98870.05;712887;1203;114016;-70
2021/05/14 06:16:08;;;;;;;10.30;5.40;;;;;;;16.54;90.59;98874.42;712733;1206;113322;-70
2021/05/14 06:31:29;;;;;;;12.43;6.33;;;;;;;16.99;87.57;98879.77;712712;1206;115295;-70
2021/05/14 06:46:50;;;;;;;9.40;6.45;;;;;;;17.84;85.43;98888.39;711984;1202;115037;-67
2021/05/14 07:02:11;;;;;;;10.50;6.13;;;;;;;18.89;81.11;98878.81;710389;1203;113722;-67
2021/05/14 07:17:31;;;;;;;8.83;4.77;;;;;;;19.57;77.56;98890.95;710914;1203;114018;-73
2021/05/14 07:32:52;;;;;;;46.25;18.68;;;;;;;20.48;74.09;98899.69;712601;1202;114210;-72
2021/05/14 07:48:22;;;;;;;10.20;5.98;;;;;;;21.47;71.47;98912.00;713104;1202;115212;-75
2021/05/14 08:03:42;;;;;;;18.43;8.10;;;;;;;20.89;69.07;98911.20;712641;1202;114505;-73
2021/05/14 08:19:03;;;;;;;13.67;5.77;;;;;;;21.50;68.31;98908.05;712678;1203;114098;-72
2021/05/14 08:34:23;;;;;;;9.60;4.67;;;;;;;21.98;66.41;98919.28;712329;1203;114568;-73
2021/05/14 08:49:46;;;;;;;15.93;5.15;;;;;;;22.97;63.63;98922.23;712418;1202;114821;-73
2021/05/14 09:05:28;;;;;;;26.00;22.65;;;;;;;23.16;61.37;98925.41;713004;1203;114398;-73
2021/05/14 09:21:00;;;;;;;13.65;10.85;;;;;;;23.97;58.87;98937.96;712499;1202;114532;-73
2021/05/14 09:36:32;;;;;;;15.13;8.55;;;;;;;24.88;59.52;98946.02;712360;1202;115277;-74
2021/05/14 09:51:55;;;;;;;11.93;8.70;;;;;;;24.45;57.59;98934.52;712486;1206;115353;-72
2021/05/14 10:07:17;;;;;;;8.10;5.87;;;;;;;24.26;55.88;98940.31;712197;1178;113767;-71
2021/05/14 10:22:38;;;;;;;5.70;4.20;;;;;;;24.98;55.48;98937.98;712458;1202;114091;-70
2021/05/14 10:38:06;;;;;;;6.80;4.20;;;;;;;25.70;54.22;98937.38;712311;1202;115186;-70
2021/05/14 10:53:44;;;;;;;6.00;4.50;;;;;;;25.20;54.15;98937.80;712334;1202;114179;-71
2021/05/14 11:09:10;;;;;;;4.10;2.95;;;;;;;26.23;53.33;98942.47;712372;1202;113987;-70
2021/05/14 11:24:48;;;;;;;;;;;;;;;25.20;52.80;98942.36;712588;1209;113722;-75
2021/05/14 11:40:15;;;;;;;4.10;3.10;;;;;;;26.11;52.17;98948.13;712453;1202;100868;-75
2021/05/14 11:55:38;;;;;;;3.73;3.15;;;;;;;24.51;51.28;98969.13;712350;1206;113546;-75
2021/05/14 12:11:08;;;;;;;7.65;3.40;;;;;;;26.59;51.39;98963.88;712423;1202;114569;-76
2021/05/14 12:26:31;;;;;;;3.37;2.70;;;;;;;26.63;49.65;98975.70;712512;1202;114027;-74
2021/05/14 12:41:59;;;;;;;6.93;5.47;;;;;;;26.13;48.70;98972.86;712197;1208;114859;-73
2021/05/14 12:57:32;;;;;;;15.75;10.30;;;;;;;26.19;47.73;98989.77;712418;1202;114899;-75
2021/05/14 13:12:53;;;;;;;4.83;4.10;;;;;;;27.14;47.66;98990.88;712275;1203;114006;-71
2021/05/14 13:28:13;;;;;;;10.73;5.17;;;;;;;26.55;47.70;98995.09;712215;1203;113633;-74
2021/05/14 13:43:34;;;;;;;3.45;2.50;;;;;;;27.37;47.90;98991.30;712535;1202;114135;-73
2021/05/14 13:58:54;;;;;;;12.38;3.95;;;;;;;26.64;47.64;99008.79;712293;1206;116454;-70
2021/05/14 14:14:16;;;;;;;13.58;9.48;;;;;;;26.29;48.35;99005.89;712577;1205;115087;-70
2021/05/14 14:29:38;;;;;;;6.55;2.95;;;;;;;28.20;46.89;99013.13;712581;1206;113827;-71
2021/05/14 14:44:59;;;;;;;6.00;3.17;;;;;;;24.68;49.00;99022.61;712944;1203;114921;-71
2021/05/14 15:00:23;;;;;;;7.43;4.03;;;;;;;23.54;52.09;99018.10;712913;1205;114463;-70
2021/05/14 15:15:46;;;;;;;17.73;6.27;;;;;;;22.08;55.14;99045.73;712557;1180;113514;-72
2021/05/14 15:31:06;;;;;;;12.80;7.40;;;;;;;18.56;70.88;99076.48;712383;1205;114260;-72
2021/05/14 15:46:27;;;;;;;8.08;4.78;;;;;;;17.42;77.59;99069.13;712745;1202;114686;-74
2021/05/14 16:01:48;;;;;;;19.20;9.90;;;;;;;16.48;85.11;99090.44;712556;1202;113797;-74
2021/05/14 16:17:15;;;;;;;19.33;9.97;;;;;;;15.63;93.60;99104.05;712710;1177;113706;-74
2021/05/14 16:32:38;;;;;;;17.63;10.73;;;;;;;15.64;98.54;99129.48;712463;1205;115082;-71
2021/05/14 16:47:59;;;;;;;61.55;33.30;;;;;;;15.85;100.00;99144.45;712419;1203;115224;-74
2021/05/14 17:03:19;;;;;;;16.03;11.90;;;;;;;15.43;100.00;99197.25;712432;1203;114137;-75
2021/05/14 17:18:39;;;;;;;42.90;25.53;;;;;;;15.24;100.00;99222.54;712415;1206;115307;-74
2021/05/14 17:34:00;;;;;;;18.95;9.50;;;;;;;15.73;100.00;99220.00;712795;1203;114664;-75
2021/05/14 17:49:21;;;;;;;20.58;14.85;;;;;;;15.57;100.00;99234.34;712712;1206;114078;-72
2021/05/14 18:04:42;;;;;;;18.57;13.67;;;;;;;14.96;100.00;99248.91;713042;1205;115066;-71
2021/05/14 18:20:04;;;;;;;13.00;6.90;;;;;;;14.48;100.00;99231.74;713061;1205;116072;-73
2021/05/14 18:35:25;;;;;;;6.13;4.30;;;;;;;14.23;100.00;99246.28;712707;1203;115034;-72
2021/05/14 18:50:45;;;;;;;17.70;11.30;;;;;;;14.25;100.00;99257.45;712366;1203;114603;-73
2021/05/14 19:06:06;;;;;;;9.80;6.00;;;;;;;14.33;100.00;99256.53;712460;1206;114699;-75
2021/05/14 19:21:32;;;;;;;19.67;10.27;;;;;;;14.45;100.00;99258.51;712373;1202;114217;-74
2021/05/14 19:37:07;;;;;;;10.90;6.70;;;;;;;14.13;100.00;99252.66;712379;1183;114276;-76
2021/05/14 19:52:28;;;;;;;48.03;23.45;;;;;;;14.25;100.00;99262.72;712377;1181;114423;-71
2021/05/14 20:07:49;;;;;;;15.60;9.20;;;;;;;14.03;100.00;99269.73;712417;1203;115238;-76
2021/05/14 20:23:09;;;;;;;13.05;8.88;;;;;;;13.82;100.00;99295.02;712957;1194;114767;-72
2021/05/14 20:38:36;;;;;;;182.50;58.35;;;;;;;13.83;100.00;99301.94;713357;1203;114210;-73
2021/05/14 20:53:57;;;;;;;20.65;12.88;;;;;;;13.61;100.00;99303.63;725325;1203;115815;-72
2021/05/14 21:09:18;;;;;;;72.03;26.93;;;;;;;13.61;100.00;99314.16;714017;1206;114505;-72
2021/05/14 21:24:38;;;;;;;46.00;20.73;;;;;;;13.85;100.00;99321.01;713725;1203;115495;-72
2021/05/14 21:39:59;;;;;;;23.10;14.00;;;;;;;13.84;100.00;99329.09;714379;1179;114214;-73
2021/05/14 21:55:20;;;;;;;18.78;11.35;;;;;;;13.73;100.00;99341.71;712958;1206;114870;-73
2021/05/14 22:10:41;;;;;;;14.68;9.23;;;;;;;13.80;100.00;99339.17;712733;1206;115274;-72
2021/05/14 22:26:01;;;;;;;16.90;8.63;;;;;;;13.63;100.00;99344.61;712922;1203;115080;-72
2021/05/14 22:41:21;;;;;;;14.03;7.50;;;;;;;13.44;100.00;99342.46;713379;1203;115603;-72
2021/05/14 22:56:42;;;;;;;11.97;7.87;;;;;;;13.39;100.00;99352.70;713134;1203;114604;-72
2021/05/14 23:12:02;;;;;;;11.05;7.20;;;;;;;13.46;100.00;99356.25;712967;1206;114495;-72
2021/05/14 23:27:21;;;;;;;12.98;7.60;;;;;;;13.43;100.00;99357.43;713248;1206;114948;-72
2021/05/14 23:42:41;;;;;;;11.87;7.67;;;;;;;13.40;100.00;99355.16;713287;1203;115739;-73
2021/05/14 23:58:01;;;;;;;;;;;;;;;13.43;100.00;99360.06;713596;1204;114095;-73
